Time;durP1;ratioP1;P1;durP2;ratioP2;P2;SDS_P1;SDS_P2;PMS_P1;PMS_P2;Temp;Humidity;BMP_temperature;BMP_pressure;BME280_temperature;BME280_humidity;BME280_pressure;Samples;Min_cycle;Max_cycle;Signal;HPM_P1;HPM_P2
2023/10/19 00:02:07;;;;;;;19.07;10.47;;;;;;;10.52;94.39;94962.09;5136425;27;20525;-79
2023/10/19 00:04:35;;;;;;;12.17;9.77;;;;;;;10.51;94.66;94956.00;5136458;27;20839;-79
2023/10/19 00:07:04;;;;;;;13.63;11.30;;;;;;;10.52;93.79;94949.81;5136404;27;20569;-79
2023/10/19 00:09:37;;;;;;;14.10;10.20;;;;;;;10.50;95.04;94951.72;5136463;27;20445;-78
2023/10/19 00:12:05;;;;;;;11.93;9.90;;;;;;;10.50;95.18;94948.25;5136516;27;20442;-78
2023/10/19 00:14:32;;;;;;;11.20;9.97;;;;;;;10.54;93.41;94945.25;5100059;27;20443;-78
2023/10/19 00:17:05;;;;;;;13.00;11.27;;;;;;;10.55;92.97;94940.84;5136189;27;20501;-78
2023/10/19 00:19:37;;;;;;;13.93;10.13;;;;;;;10.56;93.29;94937.25;5136328;27;20489;-78
2023/10/19 00:22:08;;;;;;;12.93;10.13;;;;;;;10.58;93.56;94943.19;5136401;27;20445;-79
2023/10/19 00:24:35;;;;;;;12.40;8.93;;;;;;;10.58;93.04;94934.50;5136514;27;20484;-78
2023/10/19 00:27:06;;;;;;;15.37;11.13;;;;;;;10.60;93.34;94929.94;5082602;27;20426;-78
2023/10/19 00:29:40;;;;;;;12.10;9.80;;;;;;;10.53;93.77;94925.22;5135905;27;20452;-78
2023/10/19 00:32:13;;;;;;;14.60;10.33;;;;;;;10.57;94.36;94923.16;5135996;27;20445;-79
2023/10/19 00:34:41;;;;;;;13.13;11.83;;;;;;;10.51;94.08;94927.16;5136514;27;20808;-78
2023/10/19 00:37:10;;;;;;;9.20;8.30;;;;;;;10.50;94.65;94925.50;5136732;27;20494;-78
2023/10/19 00:39:43;;;;;;;12.60;10.33;;;;;;;10.51;94.95;94926.31;5136376;27;20864;-78
2023/10/19 00:42:11;;;;;;;12.57;9.73;;;;;;;10.48;95.52;94921.31;5136422;27;20462;-78
2023/10/19 00:44:42;;;;;;;14.50;11.50;;;;;;;10.48;95.65;94910.84;5136796;27;20442;-79
2023/10/19 00:47:13;;;;;;;11.63;10.03;;;;;;;10.55;95.41;94910.19;5116129;28;20765;-78
2023/10/19 00:49:40;;;;;;;10.73;8.90;;;;;;;10.59;95.69;94915.16;5115274;28;20447;-78
2023/10/19 00:52:11;;;;;;;12.60;9.53;;;;;;;10.61;94.42;94911.44;5115883;28;20530;-80
2023/10/19 00:54:50;;;;;;;10.87;9.70;;;;;;;10.54;94.14;94913.78;5115780;28;20454;-78
2023/10/19 00:57:19;;;;;;;13.60;9.90;;;;;;;10.49;93.24;94913.34;5115665;28;20829;-79
2023/10/19 00:59:49;;;;;;;15.90;11.93;;;;;;;10.48;92.80;94918.72;5116004;28;20892;-79
2023/10/19 01:02:19;;;;;;;14.43;11.10;;;;;;;10.41;91.90;94922.81;5115607;28;20447;-79
2023/10/19 01:04:55;;;;;;;12.07;10.40;;;;;;;10.37;92.48;94916.97;5115505;28;20918;-78
2023/10/19 01:07:27;;;;;;;13.50;11.80;;;;;;;10.18;91.81;94922.06;5115272;28;20439;-78
2023/10/19 01:09:56;;;;;;;13.80;11.40;;;;;;;10.03;91.82;94928.56;5115580;28;20530;-78
2023/10/19 01:12:32;;;;;;;13.97;12.37;;;;;;;9.96;92.09;94922.16;5115367;28;20450;-78
2023/10/19 01:15:09;;;;;;;16.67;12.67;;;;;;;9.96;91.68;94919.53;5115323;28;20442;-78
2023/10/19 01:17:42;;;;;;;16.43;13.27;;;;;;;9.96;92.40;94922.16;5079150;28;20478;-78
2023/10/19 01:20:17;;;;;;;14.30;11.50;;;;;;;9.79;92.21;94923.50;5115459;28;20475;-78
2023/10/19 01:22:53;;;;;;;16.73;12.50;;;;;;;9.71;93.30;94923.31;5097401;28;20438;-78
2023/10/19 01:25:24;;;;;;;13.70;11.90;;;;;;;9.72;92.55;94923.19;5115221;28;20537;-78
2023/10/19 01:27:57;;;;;;;12.20;10.90;;;;;;;9.76;93.36;94931.63;5115028;28;20525;-79
2023/10/19 01:30:25;;;;;;;13.80;10.80;;;;;;;9.81;92.97;94919.81;5115077;28;20493;-78
2023/10/19 01:32:53;;;;;;;11.70;10.30;;;;;;;9.83;93.26;94922.31;5114774;28;20454;-78
2023/10/19 01:35:20;;;;;;;11.07;8.97;;;;;;;9.85;93.73;94918.63;5114864;28;20439;-77
2023/10/19 01:37:47;;;;;;;10.93;8.77;;;;;;;9.88;94.44;94913.13;5114783;28;20454;-78
2023/10/19 01:40:20;;;;;;;8.73;7.87;;;;;;;9.87;96.01;94915.88;5114794;28;20482;-78
2023/10/19 01:42:46;;;;;;;10.63;8.90;;;;;;;9.94;95.67;94911.81;5114656;28;20847;-78
2023/10/19 01:45:13;;;;;;;10.17;8.33;;;;;;;9.98;95.52;94912.38;5115103;28;20481;-78
2023/10/19 01:47:40;;;;;;;9.37;8.40;;;;;;;10.00;95.27;94923.56;5114616;28;20446;-79
2023/10/19 01:50:19;;;;;;;10.60;8.57;;;;;;;10.06;95.41;94923.06;5078551;28;20749;-78
2023/10/19 01:52:45;;;;;;;11.57;8.60;;;;;;;10.08;94.57;94927.22;5114708;28;20446;-78
2023/10/19 01:55:20;;;;;;;9.73;7.93;;;;;;;10.08;94.75;94913.28;5114385;28;20937;-79
2023/10/19 01:57:46;;;;;;;13.60;8.97;;;;;;;10.10;94.49;94919.22;5114642;28;20446;-79
2023/10/19 02:00:22;;;;;;;10.10;9.03;;;;;;;10.13;94.04;94919.81;5114536;28;20474;-78
2023/10/19 02:02:48;;;;;;;8.67;7.77;;;;;;;10.13;94.23;94919.00;5113355;28;20549;-79
2023/10/19 02:05:19;;;;;;;7.93;7.13;;;;;;;10.14;93.27;94920.66;5114446;28;20442;-78
2023/10/19 02:07:45;;;;;;;9.80;7.63;;;;;;;10.13;94.40;94914.59;5114042;28;20454;-79
2023/10/19 02:10:12;;;;;;;11.27;7.70;;;;;;;10.15;93.88;94917.06;5114196;28;20532;-79
2023/10/19 02:12:42;;;;;;;10.73;8.33;;;;;;;10.13;93.35;94913.75;5114173;28;20244;-78
2023/10/19 02:15:09;;;;;;;10.07;7.97;;;;;;;10.12;93.68;94917.28;5114143;28;20435;-79
2023/10/19 02:17:35;;;;;;;9.43;8.13;;;;;;;10.08;93.18;94913.28;5114220;28;20466;-79
2023/10/19 02:20:03;;;;;;;9.17;7.50;;;;;;;10.06;94.37;94920.44;5113870;28;20478;-78
2023/10/19 02:22:29;;;;;;;9.97;8.97;;;;;;;10.04;94.03;94919.72;5114012;28;20228;-79
2023/10/19 02:24:56;;;;;;;10.10;7.43;;;;;;;10.02;93.58;94922.47;5114371;28;20922;-79
2023/10/19 02:27:22;;;;;;;9.90;7.80;;;;;;;10.03;93.54;94924.13;5114131;28;20291;-78
2023/10/19 02:29:51;;;;;;;8.17;7.30;;;;;;;9.98;95.04;94936.81;5113818;28;20546;-79
2023/10/19 02:32:18;;;;;;;11.83;8.50;;;;;;;9.94;94.59;94930.16;5061850;28;20712;-78
2023/10/19 02:34:46;;;;;;;10.00;8.47;;;;;;;10.00;95.00;94926.19;5113677;28;20499;-78
2023/10/19 02:37:12;;;;;;;10.57;7.70;;;;;;;10.01;95.27;94933.09;5113493;28;20482;-78
2023/10/19 02:39:39;;;;;;;8.40;7.23;;;;;;;9.99;94.80;94927.16;5113375;28;20474;-78
2023/10/19 02:42:05;;;;;;;7.97;7.20;;;;;;;10.02;94.80;94924.28;5113728;28;20229;-78
2023/10/19 02:44:32;;;;;;;9.07;7.93;;;;;;;10.01;93.98;94919.97;5078184;28;20500;-78
2023/10/19 02:47:05;;;;;;;7.97;7.03;;;;;;;10.06;93.88;94930.91;5113659;28;20197;-78
2023/10/19 02:49:31;;;;;;;9.43;7.17;;;;;;;10.07;93.93;94922.09;5112696;28;20457;-78
2023/10/19 02:52:03;;;;;;;10.83;7.70;;;;;;;10.09;93.69;94928.03;5112704;28;20526;-77
2023/10/19 02:54:32;;;;;;;7.53;6.73;;;;;;;10.10;93.53;94920.06;5112712;28;20473;-79
2023/10/19 02:57:00;;;;;;;8.37;7.23;;;;;;;10.09;92.83;94930.66;5112524;28;20473;-78
2023/10/19 02:59:28;;;;;;;7.87;7.10;;;;;;;9.91;94.43;94928.59;5112577;28;20443;-78
2023/10/19 03:02:01;;;;;;;9.50;7.87;;;;;;;9.73;96.74;94921.41;5112144;28;20478;-78
2023/10/19 03:04:28;;;;;;;9.70;7.50;;;;;;;9.63;97.50;94921.31;5112595;28;20442;-77
2023/10/19 03:06:57;;;;;;;9.90;8.20;;;;;;;9.61;97.99;94916.22;5112434;28;20442;-78
2023/10/19 03:09:28;;;;;;;9.47;8.20;;;;;;;9.65;98.71;94914.16;5112341;28;20438;-78
2023/10/19 03:12:00;;;;;;;8.73;7.40;;;;;;;9.72;98.59;94910.09;5112181;28;20450;-78
2023/10/19 03:14:26;;;;;;;9.37;8.43;;;;;;;9.81;98.47;94909.34;5112358;28;20454;-78
2023/10/19 03:16:54;;;;;;;10.50;9.40;;;;;;;9.86;97.34;94907.19;5111941;28;20451;-79
2023/10/19 03:19:20;;;;;;;11.90;7.77;;;;;;;9.92;96.92;94911.09;5112611;28;20450;-78
2023/10/19 03:21:49;;;;;;;8.23;7.43;;;;;;;9.95;97.56;94910.84;5112284;28;20482;-79
2023/10/19 03:24:23;;;;;;;7.50;6.80;;;;;;;9.96;97.19;94904.63;5112509;28;20201;-79
2023/10/19 03:26:50;;;;;;;8.90;7.50;;;;;;;9.90;96.75;94908.59;5112072;28;20446;-79
2023/10/19 03:29:22;;;;;;;12.50;8.90;;;;;;;9.87;97.59;94908.84;5113028;28;20538;-79
2023/10/19 03:31:49;;;;;;;12.43;7.53;;;;;;;9.74;96.54;94916.03;5112329;28;20439;-79
2023/10/19 03:34:17;;;;;;;10.20;8.10;;;;;;;9.70;96.55;94909.38;5092926;28;20449;-78
2023/10/19 03:36:44;;;;;;;8.57;7.70;;;;;;;9.57;97.88;94908.72;5076705;28;20431;-79
2023/10/19 03:39:13;;;;;;;15.50;9.20;;;;;;;9.36;97.27;94906.03;5111964;28;20816;-79
2023/10/19 03:41:42;;;;;;;11.10;9.87;;;;;;;9.22;97.38;94898.41;5076275;28;20488;-79
2023/10/19 03:44:13;;;;;;;12.80;10.10;;;;;;;9.07;98.02;94897.03;5111957;28;20437;-78
2023/10/19 03:46:52;;;;;;;10.37;8.60;;;;;;;9.08;98.04;94902.16;5112148;28;20449;-77
2023/10/19 03:49:20;;;;;;;9.67;8.77;;;;;;;9.03;97.84;94901.69;5112601;28;20857;-78
2023/10/19 03:51:59;;;;;;;9.33;8.37;;;;;;;9.08;98.81;94890.84;5112302;28;20434;-79
2023/10/19 03:54:28;;;;;;;10.07;8.43;;;;;;;9.13;98.84;94894.75;5112116;28;20529;-79
2023/10/19 03:56:57;;;;;;;10.10;8.27;;;;;;;9.12;99.04;94890.47;5112425;28;20992;-79
2023/10/19 03:59:29;;;;;;;8.40;7.50;;;;;;;9.17;100.00;94892.72;5111900;28;20444;-79
2023/10/19 04:01:56;;;;;;;9.60;8.40;;;;;;;9.05;99.89;94891.09;5112413;28;20509;-79
2023/10/19 04:04:23;;;;;;;8.33;7.40;;;;;;;9.10;100.00;94895.00;5111604;28;20469;-78
2023/10/19 04:06:57;;;;;;;9.80;8.43;;;;;;;9.15;100.00;94879.75;5112025;28;20788;-78
2023/10/19 04:09:28;;;;;;;11.63;7.80;;;;;;;9.18;100.00;94892.59;5111834;28;20486;-77
2023/10/19 04:11:57;;;;;;;9.60;7.60;;;;;;;9.20;100.00;94887.25;5112053;28;20981;-77
2023/10/19 04:14:24;;;;;;;7.60;6.80;;;;;;;9.27;100.00;94893.69;5111830;28;20443;-77
2023/10/19 04:16:51;;;;;;;7.73;6.97;;;;;;;9.07;100.00;94884.78;5123768;28;20510;-77
2023/10/19 04:19:18;;;;;;;8.57;6.90;;;;;;;9.06;100.00;94877.88;5132505;28;20441;-77
2023/10/19 04:21:46;;;;;;;7.20;6.20;;;;;;;9.14;100.00;94887.72;5132454;28;20842;-77
2023/10/19 04:24:14;;;;;;;7.50;6.73;;;;;;;9.23;100.00;94879.97;5097216;28;20527;-77
2023/10/19 04:26:42;;;;;;;8.87;7.30;;;;;;;9.33;99.86;94885.31;5136768;27;20441;-77
2023/10/19 04:29:11;;;;;;;8.40;7.40;;;;;;;9.36;100.00;94882.47;5136575;27;20457;-77
2023/10/19 04:31:49;;;;;;;11.00;7.40;;;;;;;9.40;99.11;94888.28;5100685;27;20467;-78
2023/10/19 04:34:20;;;;;;;7.13;6.43;;;;;;;9.39;99.68;94886.63;5136917;27;20513;-77
2023/10/19 04:36:47;;;;;;;7.33;6.63;;;;;;;9.35;98.89;94887.81;5136584;27;20856;-78
2023/10/19 04:39:13;;;;;;;8.37;7.57;;;;;;;9.41;99.29;94880.31;5136474;27;20900;-78
2023/10/19 04:41:41;;;;;;;7.00;6.30;;;;;;;9.43;98.83;94882.78;5136692;27;20485;-77
2023/10/19 04:44:08;;;;;;;8.80;6.40;;;;;;;9.37;98.60;94878.06;5136478;27;20940;-77
2023/10/19 04:46:36;;;;;;;8.13;5.60;;;;;;;9.24;97.66;94872.94;5136720;27;20488;-77
2023/10/19 04:49:04;;;;;;;7.17;6.17;;;;;;;9.26;99.21;94877.13;5083577;27;20441;-78
2023/10/19 04:51:31;;;;;;;8.37;5.40;;;;;;;9.30;98.55;94875.94;5136386;27;20477;-77
2023/10/19 04:53:58;;;;;;;7.90;5.70;;;;;;;9.24;98.90;94868.53;5083138;27;20429;-77
2023/10/19 04:56:24;;;;;;;6.57;5.70;;;;;;;9.23;98.49;94874.72;5135999;27;20449;-77
2023/10/19 04:58:52;;;;;;;9.10;5.60;;;;;;;9.05;98.11;94878.00;5100272;27;20442;-77
2023/10/19 05:01:19;;;;;;;6.70;5.40;;;;;;;8.95;98.78;94876.09;5135982;27;21017;-77
2023/10/19 05:03:47;;;;;;;5.07;4.57;;;;;;;9.08;99.10;94870.72;5136115;27;20774;-77
2023/10/19 05:06:14;;;;;;;11.10;5.53;;;;;;;9.18;98.48;94868.22;5135910;27;20438;-77
2023/10/19 05:08:41;;;;;;;6.00;5.00;;;;;;;9.32;98.43;94874.03;5136140;27;20453;-77
2023/10/19 05:11:07;;;;;;;5.80;5.20;;;;;;;9.41;98.00;94869.00;5135956;27;20438;-77
2023/10/19 05:13:34;;;;;;;9.50;5.33;;;;;;;9.56;98.12;94880.88;5136148;27;20441;-77
2023/10/19 05:16:01;;;;;;;6.90;5.50;;;;;;;9.94;96.91;94880.34;5135988;27;20529;-78
2023/10/19 05:18:29;;;;;;;4.70;4.30;;;;;;;10.45;94.39;94880.44;5136105;27;20548;-77
2023/10/19 05:20:58;;;;;;;7.43;6.10;;;;;;;10.81;90.94;94876.47;5135664;27;20534;-77
2023/10/19 05:23:26;;;;;;;6.10;4.50;;;;;;;11.26;90.14;94883.09;5135436;27;20517;-77
2023/10/19 05:25:54;;;;;;;5.63;5.03;;;;;;;12.01;86.50;94896.53;5136093;27;20806;-78
2023/10/19 05:28:22;;;;;;;5.80;5.03;;;;;;;12.78;83.02;94895.59;5135473;27;20913;-77
2023/10/19 05:30:50;;;;;;;4.70;3.93;;;;;;;13.44;79.78;94892.84;5135631;27;21673;-78
2023/10/19 05:33:20;;;;;;;4.67;4.00;;;;;;;14.04;76.72;94901.03;5135338;27;20480;-78
2023/10/19 05:35:47;;;;;;;5.50;4.87;;;;;;;14.48;74.46;94904.59;5135422;27;20453;-76
2023/10/19 05:38:16;;;;;;;5.23;4.73;;;;;;;14.92;72.44;94896.63;5135191;27;20913;-77
2023/10/19 05:40:43;;;;;;;5.73;4.33;;;;;;;15.16;71.29;94898.56;5135487;27;20830;-77
2023/10/19 05:43:11;;;;;;;5.27;4.77;;;;;;;15.23;69.51;94906.69;5135481;27;20576;-77
2023/10/19 05:45:38;;;;;;;4.97;4.50;;;;;;;15.40;69.90;94898.69;5065589;27;20925;-77
2023/10/19 05:48:06;;;;;;;5.70;4.63;;;;;;;15.74;67.91;94911.06;5135411;27;20808;-77
2023/10/19 05:50:33;;;;;;;6.43;4.97;;;;;;;15.63;67.64;94903.44;5135255;27;20493;-77
2023/10/19 05:53:00;;;;;;;5.33;4.83;;;;;;;15.65;67.98;94907.59;5135044;27;20978;-78
2023/10/19 05:55:28;;;;;;;6.53;5.93;;;;;;;15.58;68.76;94903.91;5135076;27;20496;-78
2023/10/19 05:57:56;;;;;;;5.87;5.37;;;;;;;15.44;67.59;94905.31;5082177;27;20491;-77
2023/10/19 06:00:25;;;;;;;5.80;5.20;;;;;;;15.30;68.50;94911.19;5134880;27;20785;-77
2023/10/19 06:03:02;;;;;;;5.67;5.17;;;;;;;15.03;68.95;94908.72;5081833;27;20474;-77
2023/10/19 06:05:30;;;;;;;5.87;5.37;;;;;;;14.95;71.33;94903.41;5134716;27;20456;-76
2023/10/19 06:07:59;;;;;;;6.27;4.77;;;;;;;14.75;71.67;94908.91;5134914;27;20438;-77
2023/10/19 06:10:32;;;;;;;5.90;5.40;;;;;;;14.48;72.55;94911.69;5134779;27;20442;-78
2023/10/19 06:13:02;;;;;;;11.40;7.47;;;;;;;14.40;73.22;94911.56;5135090;27;20780;-77
2023/10/19 06:15:32;;;;;;;9.60;7.07;;;;;;;14.20;73.81;94911.75;5134726;27;20438;-78
2023/10/19 06:17:58;;;;;;;7.93;6.10;;;;;;;14.01;74.93;94909.25;5134785;27;20881;-77
2023/10/19 06:20:26;;;;;;;10.10;9.10;;;;;;;13.54;75.55;94905.94;5081564;27;20447;-77
2023/10/19 06:23:03;;;;;;;13.80;9.17;;;;;;;13.41;77.31;94901.03;5134484;27;20848;-78
2023/10/19 06:25:34;;;;;;;9.37;7.30;;;;;;;13.06;79.19;94903.53;5133542;27;20446;-77
2023/10/19 06:28:01;;;;;;;8.60;7.70;;;;;;;12.64;80.29;94901.28;5131480;27;20578;-77
2023/10/19 06:30:28;;;;;;;9.13;8.20;;;;;;;12.74;81.65;94903.94;5133932;27;20512;-77
2023/10/19 06:33:00;;;;;;;11.13;7.17;;;;;;;12.75;82.43;94909.06;5134381;27;20812;-78
2023/10/19 06:35:28;;;;;;;8.40;7.33;;;;;;;12.76;84.77;94892.28;5098053;27;20464;-77
2023/10/19 06:37:56;;;;;;;7.10;6.07;;;;;;;12.88;86.81;94896.38;5134748;27;20436;-81
2023/10/19 06:40:22;;;;;;;7.57;5.97;;;;;;;12.91;87.98;94888.19;5134667;27;20470;-78
2023/10/19 06:42:51;;;;;;;6.67;6.00;;;;;;;12.98;89.61;94891.06;5134595;27;20554;-79
2023/10/19 06:45:18;;;;;;;8.27;7.20;;;;;;;13.01;88.61;94894.28;5134232;27;20445;-77
2023/10/19 06:47:47;;;;;;;11.47;7.37;;;;;;;13.11;87.53;94890.75;5080862;27;20434;-77
2023/10/19 06:50:16;;;;;;;6.40;5.80;;;;;;;13.01;85.64;94889.00;5133668;27;20481;-77
2023/10/19 06:52:44;;;;;;;11.97;6.50;;;;;;;12.97;85.69;94882.34;5133723;27;20469;-79
2023/10/19 06:55:14;;;;;;;6.03;5.13;;;;;;;13.05;88.24;94883.44;5134033;27;20448;-77
2023/10/19 06:57:43;;;;;;;7.63;5.73;;;;;;;13.16;85.78;94891.16;5133471;27;20749;-78
2023/10/19 07:00:15;;;;;;;6.33;5.73;;;;;;;13.10;84.07;94892.56;5133657;27;20974;-77
2023/10/19 07:02:45;;;;;;;6.10;5.30;;;;;;;13.07;83.03;94895.50;5133235;27;20919;-77
2023/10/19 07:05:13;;;;;;;5.80;5.30;;;;;;;13.12;83.63;94895.88;5133594;27;20523;-77
2023/10/19 07:07:42;;;;;;;5.67;5.17;;;;;;;13.12;83.54;94887.16;5096613;27;20442;-77
2023/10/19 07:10:17;;;;;;;6.13;5.53;;;;;;;13.15;84.15;94871.88;5080227;27;20941;-78
2023/10/19 07:12:48;;;;;;;6.20;5.40;;;;;;;12.96;82.06;94878.03;5133446;27;20525;-78
2023/10/19 07:15:18;;;;;;;7.50;6.50;;;;;;;12.80;83.35;94872.56;5133467;27;20437;-77
2023/10/19 07:17:49;;;;;;;6.27;5.40;;;;;;;12.94;85.09;94871.25;5114207;27;20478;-78
2023/10/19 07:20:25;;;;;;;8.03;5.93;;;;;;;13.13;85.88;94868.56;5098148;28;20931;-78
2023/10/19 07:22:52;;;;;;;8.77;7.53;;;;;;;13.17;83.04;94874.34;5133392;28;20506;-78
2023/10/19 07:25:21;;;;;;;8.00;6.80;;;;;;;13.18;84.29;94876.88;5133326;28;20437;-78
2023/10/19 07:27:48;;;;;;;8.43;6.70;;;;;;;13.18;83.91;94883.97;5133098;28;20441;-77
2023/10/19 07:30:20;;;;;;;23.23;8.63;;;;;;;13.09;81.90;94890.91;5133383;28;20444;-78
2023/10/19 07:32:51;;;;;;;8.00;7.20;;;;;;;13.17;84.04;94874.34;5133147;28;20447;-78
2023/10/19 07:35:20;;;;;;;11.80;8.97;;;;;;;13.20;84.22;94880.19;5133295;28;20437;-77
2023/10/19 07:37:50;;;;;;;15.37;9.43;;;;;;;13.26;84.03;94876.13;5133379;28;20465;-77
2023/10/19 07:40:17;;;;;;;10.00;8.37;;;;;;;13.31;82.48;94877.38;5097611;28;20451;-77
2023/10/19 07:42:44;;;;;;;10.97;9.10;;;;;;;13.36;82.28;94882.22;5133193;28;20490;-79
2023/10/19 07:45:12;;;;;;;20.50;11.60;;;;;;;13.57;83.10;94893.31;5133132;28;20441;-77
2023/10/19 07:47:41;;;;;;;12.83;10.90;;;;;;;13.57;80.90;94888.03;5133136;28;20455;-77
2023/10/19 07:50:12;;;;;;;13.17;10.03;;;;;;;13.58;81.72;94881.78;5133090;28;20450;-77
2023/10/19 07:52:41;;;;;;;12.30;9.20;;;;;;;13.57;81.75;94885.38;5082074;28;20451;-78
2023/10/19 07:55:11;;;;;;;12.33;10.60;;;;;;;13.46;82.77;94896.16;5133418;28;20807;-77
2023/10/19 07:57:41;;;;;;;11.53;9.73;;;;;;;13.27;80.95;94893.59;5133616;28;20665;-77
2023/10/19 08:00:13;;;;;;;12.40;11.10;;;;;;;13.16;82.76;94884.06;5134638;27;20939;-78
2023/10/19 08:02:45;;;;;;;13.93;9.70;;;;;;;13.20;82.69;94885.47;5085966;27;20479;-78
2023/10/19 08:05:12;;;;;;;12.07;9.80;;;;;;;13.37;85.29;94891.78;5137398;27;20472;-78
2023/10/19 08:07:42;;;;;;;11.97;9.73;;;;;;;13.44;83.50;94886.75;5136249;27;20506;-78
2023/10/19 08:10:10;;;;;;;11.67;9.57;;;;;;;13.43;81.48;94890.34;5136986;27;20445;-78
2023/10/19 08:12:37;;;;;;;14.53;9.90;;;;;;;13.55;81.51;94900.53;5137046;27;20481;-78
2023/10/19 08:15:06;;;;;;;10.53;8.83;;;;;;;13.45;81.66;94894.50;5088676;28;20460;-78
2023/10/19 08:17:33;;;;;;;10.57;8.70;;;;;;;13.52;81.48;94905.28;5135371;27;20567;-79
2023/10/19 08:20:03;;;;;;;12.50;8.77;;;;;;;13.68;83.14;94900.19;5128686;27;20782;-78
2023/10/19 08:22:30;;;;;;;9.50;8.60;;;;;;;13.92;81.97;94891.69;5080395;27;20485;-79
2023/10/19 08:24:57;;;;;;;15.73;8.63;;;;;;;14.15;80.02;94886.78;5128383;27;20501;-78
2023/10/19 08:27:25;;;;;;;11.40;8.90;;;;;;;14.47;80.49;94883.63;5123478;27;20438;-78
2023/10/19 08:29:51;;;;;;;8.43;7.50;;;;;;;14.64;78.67;94895.94;5125745;27;20566;-77
2023/10/19 08:32:18;;;;;;;15.97;8.53;;;;;;;15.00;78.87;94898.47;5134965;27;20462;-78
2023/10/19 08:34:45;;;;;;;14.53;8.60;;;;;;;15.41;77.01;94892.41;5136232;27;20448;-78
2023/10/19 08:37:14;;;;;;;10.13;8.30;;;;;;;15.76;76.72;94895.88;5136424;27;20525;-78
2023/10/19 08:39:43;;;;;;;11.40;8.73;;;;;;;15.97;73.30;94893.59;5050138;27;20426;-78
2023/10/19 08:42:10;;;;;;;10.90;8.40;;;;;;;16.07;72.33;94896.09;5136372;27;20485;-78
2023/10/19 08:44:37;;;;;;;10.90;8.67;;;;;;;16.09;70.43;94902.03;5135991;27;20492;-78
2023/10/19 08:47:05;;;;;;;9.37;8.47;;;;;;;16.15;70.59;94893.44;5135778;27;20842;-78
2023/10/19 08:49:32;;;;;;;11.73;9.90;;;;;;;16.19;70.72;94886.00;5135611;27;20912;-78
2023/10/19 08:52:00;;;;;;;10.37;7.97;;;;;;;16.16;69.44;94892.44;5099443;27;20441;-78
2023/10/19 08:54:28;;;;;;;12.37;8.90;;;;;;;16.16;70.24;94896.91;5135724;27;20447;-78
2023/10/19 08:56:55;;;;;;;10.90;8.60;;;;;;;16.13;71.99;94886.66;5135511;27;20440;-78
2023/10/19 08:59:23;;;;;;;14.67;8.90;;;;;;;16.10;72.86;94893.09;5135636;27;20534;-78
2023/10/19 09:01:50;;;;;;;12.57;9.30;;;;;;;16.12;72.62;94888.47;5135207;27;20517;-78
2023/10/19 09:04:17;;;;;;;13.00;9.37;;;;;;;16.09;70.88;94896.75;5135332;27;20499;-77
2023/10/19 09:06:45;;;;;;;10.43;8.23;;;;;;;16.20;71.95;94890.31;5135365;27;20821;-77
2023/10/19 09:09:16;;;;;;;14.17;7.30;;;;;;;16.36;70.82;94885.03;5135698;27;20441;-77
2023/10/19 09:11:46;;;;;;;9.23;8.23;;;;;;;16.41;70.98;94882.69;5134992;27;20438;-78
2023/10/19 09:14:13;;;;;;;12.40;7.80;;;;;;;16.40;69.94;94886.34;5135268;27;20449;-77
2023/10/19 09:16:55;;;;;;;11.90;9.30;;;;;;;16.23;69.60;94868.81;5134989;27;20444;-76
2023/10/19 09:19:22;;;;;;;10.40;8.40;;;;;;;16.20;69.90;94866.50;5098799;27;20434;-77
2023/10/19 09:21:49;;;;;;;10.13;9.03;;;;;;;16.34;70.46;94864.00;5135318;27;20450;-77
2023/10/19 09:24:16;;;;;;;9.10;8.13;;;;;;;16.31;69.62;94863.50;5135421;27;20948;-77
2023/10/19 09:26:44;;;;;;;10.50;7.87;;;;;;;16.49;71.03;94858.06;5135225;27;20449;-77
2023/10/19 09:29:18;;;;;;;8.13;7.37;;;;;;;16.65;70.70;94861.50;5134944;27;20446;-77
2023/10/19 09:31:48;;;;;;;9.80;7.63;;;;;;;16.67;69.07;94853.41;5135301;27;20545;-77
2023/10/19 09:34:17;;;;;;;7.90;7.20;;;;;;;16.32;68.73;94847.47;5135009;27;20446;-77
2023/10/19 09:36:44;;;;;;;8.90;8.00;;;;;;;16.17;69.63;94842.97;5134927;27;20455;-77
2023/10/19 09:39:12;;;;;;;9.67;8.70;;;;;;;16.07;71.94;94828.09;5081919;27;20938;-77
2023/10/19 09:41:40;;;;;;;8.20;7.30;;;;;;;15.41;72.70;94826.31;5134654;27;20445;-77
2023/10/19 09:44:15;;;;;;;10.70;8.20;;;;;;;15.30;73.40;94820.47;5134644;27;20593;-77
2023/10/19 09:46:42;;;;;;;8.47;7.67;;;;;;;15.42;73.84;94813.91;5135056;27;20447;-77
2023/10/19 09:49:11;;;;;;;8.70;7.80;;;;;;;15.52;73.96;94813.75;5081559;27;20797;-78
2023/10/19 09:51:39;;;;;;;10.93;8.43;;;;;;;15.50;72.89;94812.09;5134780;27;20464;-78
2023/10/19 09:54:15;;;;;;;6.40;5.80;;;;;;;15.58;74.38;94811.31;5134493;27;20506;-77
2023/10/19 09:56:45;;;;;;;8.13;6.93;;;;;;;15.62;73.33;94801.28;5134864;27;20437;-78
2023/10/19 09:59:25;;;;;;;7.83;6.80;;;;;;;15.70;73.79;94798.63;5134301;27;20439;-77
2023/10/19 10:02:12;;;;;;;12.13;8.63;;;;;;;15.75;74.77;94791.03;5134152;27;20930;-77
2023/10/19 10:04:40;;;;;;;11.50;8.47;;;;;;;15.82;75.42;94792.00;5133934;27;20448;-77
2023/10/19 10:07:12;;;;;;;10.27;8.40;;;;;;;15.82;74.98;94802.59;5133984;27;20993;-77
2023/10/19 10:09:43;;;;;;;10.33;8.27;;;;;;;15.89;74.57;94790.34;5133886;27;20927;-77
2023/10/19 10:12:22;;;;;;;10.13;8.90;;;;;;;15.94;73.70;94788.06;5134123;27;20476;-77
2023/10/19 10:15:03;;;;;;;13.20;8.00;;;;;;;16.02;75.35;94774.00;5134387;27;20439;-77
2023/10/19 10:17:33;;;;;;;9.77;8.77;;;;;;;16.10;74.46;94788.06;5097863;27;20484;-77
2023/10/19 10:20:34;;;;;;;11.60;8.90;;;;;;;16.09;74.07;94775.81;5082895;27;20954;-77
2023/10/19 10:23:21;;;;;;;9.10;7.70;;;;;;;16.16;75.67;94769.84;5097777;27;20477;-77
2023/10/19 10:25:49;;;;;;;8.33;7.53;;;;;;;16.27;76.42;94772.16;5133682;27;20443;-77
2023/10/19 10:28:16;;;;;;;9.60;7.87;;;;;;;16.38;77.47;94775.28;5133874;27;20448;-78
2023/10/19 10:31:15;;;;;;;11.17;9.00;;;;;;;16.57;76.14;94773.25;5133663;27;20967;-77
2023/10/19 10:33:47;;;;;;;9.97;8.90;;;;;;;16.66;72.41;94761.66;5133642;27;20450;-77
2023/10/19 10:36:14;;;;;;;10.27;9.10;;;;;;;16.84;73.17;94758.81;5097256;27;20495;-77
2023/10/19 10:38:42;;;;;;;10.67;8.70;;;;;;;16.93;72.70;94752.47;5133382;27;20445;-77
2023/10/19 10:41:11;;;;;;;9.03;8.10;;;;;;;17.00;72.56;94758.72;5133329;27;20516;-77
2023/10/19 10:43:54;;;;;;;9.60;8.70;;;;;;;17.04;72.88;94742.28;5133275;27;20992;-77
2023/10/19 10:46:25;;;;;;;8.97;8.07;;;;;;;17.20;74.01;94744.06;5133321;27;20437;-77
2023/10/19 10:48:52;;;;;;;10.37;9.30;;;;;;;17.23;71.07;94738.41;5133568;27;20518;-77
2023/10/19 10:51:20;;;;;;;11.03;9.87;;;;;;;17.24;71.35;94724.13;5133350;27;20451;-77
2023/10/19 10:53:51;;;;;;;11.57;9.57;;;;;;;17.40;71.94;94722.41;5133235;27;20467;-77
2023/10/19 10:56:19;;;;;;;16.07;9.57;;;;;;;17.43;71.79;94717.56;5133121;27;20435;-78
2023/10/19 10:58:46;;;;;;;10.90;9.80;;;;;;;17.52;72.08;94711.19;5133533;27;20463;-77
2023/10/19 11:01:14;;;;;;;9.90;8.90;;;;;;;17.62;72.31;94710.94;5133500;27;20940;-77
2023/10/19 11:03:43;;;;;;;12.37;10.50;;;;;;;17.70;71.66;94707.47;5133543;27;20521;-78
2023/10/19 11:06:11;;;;;;;10.83;9.40;;;;;;;17.77;71.81;94703.09;5133236;27;20446;-77
2023/10/19 11:08:38;;;;;;;8.93;8.03;;;;;;;17.82;71.37;94696.22;5133203;27;20447;-78
2023/10/19 11:11:07;;;;;;;10.40;8.77;;;;;;;17.87;70.50;94693.03;5133310;27;20438;-77
2023/10/19 11:13:35;;;;;;;9.63;8.63;;;;;;;17.60;69.23;94681.13;5132833;27;20501;-78
2023/10/19 11:16:05;;;;;;;8.90;8.00;;;;;;;17.66;69.70;94675.13;5132935;27;20440;-78
2023/10/19 11:18:35;;;;;;;9.53;8.50;;;;;;;17.62;71.01;94679.09;5096712;28;20475;-78
2023/10/19 11:21:07;;;;;;;9.80;8.77;;;;;;;17.58;71.53;94672.50;5133128;28;20449;-78
2023/10/19 11:23:41;;;;;;;8.70;7.90;;;;;;;17.77;71.62;94666.75;5132648;28;20484;-78
2023/10/19 11:26:08;;;;;;;9.70;8.70;;;;;;;17.92;73.21;94654.31;5132830;28;20864;-77
2023/10/19 11:28:38;;;;;;;11.70;9.13;;;;;;;17.93;71.25;94656.00;5133199;28;20443;-77
2023/10/19 11:31:15;;;;;;;13.33;8.33;;;;;;;18.07;72.35;94654.34;5132786;28;20521;-78
2023/10/19 11:33:44;;;;;;;9.17;8.27;;;;;;;18.16;73.18;94650.59;5134162;27;20506;-78
2023/10/19 11:36:13;;;;;;;10.33;7.90;;;;;;;18.23;71.13;94648.88;5137072;27;20478;-78
2023/10/19 11:38:42;;;;;;;9.07;8.10;;;;;;;18.37;70.96;94635.75;5137027;27;20935;-78
2023/10/19 11:41:09;;;;;;;9.63;8.63;;;;;;;18.52;70.88;94645.41;5137297;27;20442;-77